Terminal Aerodrome Forecast
Issued by NWS

Home | Current Version | Previous Version | Graphics & Text | Print | Product List | Glossary On
Versions: 1 2 3 4 5 6 7 8 9 10 11 12
000
FTUS42 KMHX 210500 RRA
TAFOAJ
TAF
KOAJ 210543Z 2106/2206 01010G17KT P6SM BKN025 OVC040
     FM211000 36009G16KT P6SM SCT030 OVC050
     FM211300 36011G20KT P6SM SCT025 BKN050
     FM212000 36004KT P6SM SKC
      AMD LTD TO CLD VIS AND WIND=

USA.gov is the U.S. government's official web portal to all federal, state and local government web resources and services.